sensor_id;sensor_type;location;lat;lon;timestamp;P1;durP1;ratioP1;P2;durP2;ratioP2
17079;SDS011;8655;57.106;-2.088;2023-04-24T00:02:04;4.47;;;2.20;;
17079;SDS011;8655;57.106;-2.088;2023-04-24T00:04:31;4.37;;;2.20;;
17079;SDS011;8655;57.106;-2.088;2023-04-24T00:06:57;5.53;;;2.33;;
17079;SDS011;8655;57.106;-2.088;2023-04-24T00:09:24;5.90;;;2.20;;
17079;SDS011;8655;57.106;-2.088;2023-04-24T00:11:51;3.37;;;2.00;;
17079;SDS011;8655;57.106;-2.088;2023-04-24T00:14:17;3.50;;;2.00;;
17079;SDS011;8655;57.106;-2.088;2023-04-24T00:16:43;6.87;;;2.70;;
17079;SDS011;8655;57.106;-2.088;2023-04-24T00:19:08;4.53;;;2.10;;
17079;SDS011;8655;57.106;-2.088;2023-04-24T00:21:34;5.47;;;2.50;;
17079;SDS011;8655;57.106;-2.088;2023-04-24T00:24:00;5.03;;;2.20;;
17079;SDS011;8655;57.106;-2.088;2023-04-24T00:26:25;5.53;;;2.20;;
17079;SDS011;8655;57.106;-2.088;2023-04-24T00:28:51;5.63;;;2.53;;
17079;SDS011;8655;57.106;-2.088;2023-04-24T00:31:17;3.90;;;2.20;;
17079;SDS011;8655;57.106;-2.088;2023-04-24T00:33:42;5.13;;;1.80;;
17079;SDS011;8655;57.106;-2.088;2023-04-24T00:36:08;4.90;;;2.13;;
17079;SDS011;8655;57.106;-2.088;2023-04-24T00:38:34;4.93;;;2.20;;
17079;SDS011;8655;57.106;-2.088;2023-04-24T00:41:00;4.40;;;1.97;;
17079;SDS011;8655;57.106;-2.088;2023-04-24T00:43:26;4.67;;;2.20;;
17079;SDS011;8655;57.106;-2.088;2023-04-24T00:45:51;7.27;;;2.07;;
17079;SDS011;8655;57.106;-2.088;2023-04-24T00:48:17;5.20;;;2.30;;
17079;SDS011;8655;57.106;-2.088;2023-04-24T00:50:43;5.30;;;2.20;;
17079;SDS011;8655;57.106;-2.088;2023-04-24T00:53:10;5.70;;;2.30;;
17079;SDS011;8655;57.106;-2.088;2023-04-24T00:55:35;6.00;;;2.30;;
17079;SDS011;8655;57.106;-2.088;2023-04-24T00:58:02;6.07;;;2.40;;
17079;SDS011;8655;57.106;-2.088;2023-04-24T01:00:28;5.77;;;2.40;;
17079;SDS011;8655;57.106;-2.088;2023-04-24T01:02:55;4.80;;;2.20;;
17079;SDS011;8655;57.106;-2.088;2023-04-24T01:05:22;4.93;;;2.23;;
17079;SDS011;8655;57.106;-2.088;2023-04-24T01:07:48;5.13;;;2.40;;
17079;SDS011;8655;57.106;-2.088;2023-04-24T01:10:14;4.87;;;2.20;;
17079;SDS011;8655;57.106;-2.088;2023-04-24T01:12:41;5.73;;;2.57;;
17079;SDS011;8655;57.106;-2.088;2023-04-24T01:15:07;5.80;;;2.20;;
17079;SDS011;8655;57.106;-2.088;2023-04-24T01:17:34;5.37;;;2.30;;
17079;SDS011;8655;57.106;-2.088;2023-04-24T01:20:00;5.80;;;2.03;;
17079;SDS011;8655;57.106;-2.088;2023-04-24T01:22:26;5.30;;;2.23;;
17079;SDS011;8655;57.106;-2.088;2023-04-24T01:24:52;4.80;;;2.17;;
17079;SDS011;8655;57.106;-2.088;2023-04-24T01:27:18;4.03;;;2.00;;
17079;SDS011;8655;57.106;-2.088;2023-04-24T01:29:45;4.73;;;2.00;;
17079;SDS011;8655;57.106;-2.088;2023-04-24T01:32:12;5.07;;;2.23;;
17079;SDS011;8655;57.106;-2.088;2023-04-24T01:34:38;4.87;;;2.03;;
17079;SDS011;8655;57.106;-2.088;2023-04-24T01:37:04;4.60;;;2.33;;
17079;SDS011;8655;57.106;-2.088;2023-04-24T01:39:30;5.17;;;2.10;;
17079;SDS011;8655;57.106;-2.088;2023-04-24T01:41:56;5.47;;;2.07;;
17079;SDS011;8655;57.106;-2.088;2023-04-24T01:44:22;5.53;;;2.37;;
17079;SDS011;8655;57.106;-2.088;2023-04-24T01:46:48;3.30;;;1.67;;
17079;SDS011;8655;57.106;-2.088;2023-04-24T01:49:14;2.97;;;1.93;;
17079;SDS011;8655;57.106;-2.088;2023-04-24T01:51:40;5.60;;;2.30;;
17079;SDS011;8655;57.106;-2.088;2023-04-24T01:54:06;4.90;;;2.03;;
17079;SDS011;8655;57.106;-2.088;2023-04-24T01:56:33;5.47;;;2.00;;
17079;SDS011;8655;57.106;-2.088;2023-04-24T01:59:02;5.80;;;2.13;;
17079;SDS011;8655;57.106;-2.088;2023-04-24T02:01:32;4.70;;;2.00;;
17079;SDS011;8655;57.106;-2.088;2023-04-24T02:04:01;4.30;;;1.90;;
17079;SDS011;8655;57.106;-2.088;2023-04-24T02:06:28;5.20;;;2.40;;
17079;SDS011;8655;57.106;-2.088;2023-04-24T02:08:53;3.80;;;1.90;;
17079;SDS011;8655;57.106;-2.088;2023-04-24T02:11:19;4.03;;;2.00;;
17079;SDS011;8655;57.106;-2.088;2023-04-24T02:13:45;4.90;;;2.10;;
17079;SDS011;8655;57.106;-2.088;2023-04-24T02:16:10;5.03;;;2.10;;
17079;SDS011;8655;57.106;-2.088;2023-04-24T02:18:36;3.57;;;2.20;;
17079;SDS011;8655;57.106;-2.088;2023-04-24T02:21:02;5.27;;;2.30;;
17079;SDS011;8655;57.106;-2.088;2023-04-24T02:23:27;4.90;;;2.00;;
17079;SDS011;8655;57.106;-2.088;2023-04-24T02:25:53;4.43;;;2.00;;
17079;SDS011;8655;57.106;-2.088;2023-04-24T02:28:19;4.67;;;2.17;;
17079;SDS011;8655;57.106;-2.088;2023-04-24T02:30:45;7.00;;;2.20;;
17079;SDS011;8655;57.106;-2.088;2023-04-24T02:33:11;5.27;;;2.23;;
17079;SDS011;8655;57.106;-2.088;2023-04-24T02:35:36;5.07;;;2.17;;
17079;SDS011;8655;57.106;-2.088;2023-04-24T02:38:03;2.97;;;2.00;;
17079;SDS011;8655;57.106;-2.088;2023-04-24T02:40:29;4.43;;;1.90;;
17079;SDS011;8655;57.106;-2.088;2023-04-24T02:42:54;4.83;;;2.37;;
17079;SDS011;8655;57.106;-2.088;2023-04-24T02:45:20;4.70;;;2.03;;
17079;SDS011;8655;57.106;-2.088;2023-04-24T02:47:46;4.43;;;2.10;;
17079;SDS011;8655;57.106;-2.088;2023-04-24T02:50:12;4.90;;;1.97;;
17079;SDS011;8655;57.106;-2.088;2023-04-24T02:52:37;3.43;;;1.90;;
17079;SDS011;8655;57.106;-2.088;2023-04-24T02:55:04;2.93;;;1.80;;
17079;SDS011;8655;57.106;-2.088;2023-04-24T02:57:30;4.97;;;2.10;;
17079;SDS011;8655;57.106;-2.088;2023-04-24T02:59:56;5.13;;;1.90;;
17079;SDS011;8655;57.106;-2.088;2023-04-24T03:02:21;4.93;;;2.20;;
17079;SDS011;8655;57.106;-2.088;2023-04-24T03:04:47;4.77;;;1.80;;
17079;SDS011;8655;57.106;-2.088;2023-04-24T03:07:13;6.47;;;2.20;;
17079;SDS011;8655;57.106;-2.088;2023-04-24T03:09:39;3.87;;;1.87;;
17079;SDS011;8655;57.106;-2.088;2023-04-24T03:12:05;4.57;;;2.13;;
17079;SDS011;8655;57.106;-2.088;2023-04-24T03:14:31;3.57;;;2.00;;
17079;SDS011;8655;57.106;-2.088;2023-04-24T03:16:57;4.73;;;2.23;;
17079;SDS011;8655;57.106;-2.088;2023-04-24T03:19:23;4.07;;;1.73;;
17079;SDS011;8655;57.106;-2.088;2023-04-24T03:21:48;6.57;;;2.53;;
17079;SDS011;8655;57.106;-2.088;2023-04-24T03:24:14;3.23;;;1.83;;
17079;SDS011;8655;57.106;-2.088;2023-04-24T03:26:40;7.20;;;2.20;;
17079;SDS011;8655;57.106;-2.088;2023-04-24T03:29:06;3.60;;;1.83;;
17079;SDS011;8655;57.106;-2.088;2023-04-24T03:31:31;4.47;;;1.77;;
17079;SDS011;8655;57.106;-2.088;2023-04-24T03:33:57;5.00;;;1.90;;
17079;SDS011;8655;57.106;-2.088;2023-04-24T03:36:23;5.73;;;2.23;;
17079;SDS011;8655;57.106;-2.088;2023-04-24T03:38:48;3.33;;;1.80;;
17079;SDS011;8655;57.106;-2.088;2023-04-24T03:41:14;5.00;;;1.90;;
17079;SDS011;8655;57.106;-2.088;2023-04-24T03:43:40;4.20;;;1.90;;
17079;SDS011;8655;57.106;-2.088;2023-04-24T03:46:06;4.47;;;1.90;;
17079;SDS011;8655;57.106;-2.088;2023-04-24T03:48:34;3.87;;;1.80;;
17079;SDS011;8655;57.106;-2.088;2023-04-24T03:51:00;4.60;;;2.10;;
17079;SDS011;8655;57.106;-2.088;2023-04-24T03:53:25;4.10;;;2.07;;
17079;SDS011;8655;57.106;-2.088;2023-04-24T03:55:52;4.60;;;2.00;;
17079;SDS011;8655;57.106;-2.088;2023-04-24T03:58:18;3.77;;;1.70;;
17079;SDS011;8655;57.106;-2.088;2023-04-24T04:00:44;5.03;;;2.13;;
17079;SDS011;8655;57.106;-2.088;2023-04-24T04:03:11;5.37;;;2.30;;
17079;SDS011;8655;57.106;-2.088;2023-04-24T04:05:38;5.23;;;2.20;;
17079;SDS011;8655;57.106;-2.088;2023-04-24T04:08:04;3.17;;;1.70;;
17079;SDS011;8655;57.106;-2.088;2023-04-24T04:10:30;4.90;;;2.10;;
17079;SDS011;8655;57.106;-2.088;2023-04-24T04:12:56;4.30;;;1.80;;
17079;SDS011;8655;57.106;-2.088;2023-04-24T04:15:21;5.17;;;2.10;;
17079;SDS011;8655;57.106;-2.088;2023-04-24T04:17:47;4.60;;;2.00;;
17079;SDS011;8655;57.106;-2.088;2023-04-24T04:20:13;4.33;;;1.80;;
17079;SDS011;8655;57.106;-2.088;2023-04-24T04:22:38;4.23;;;1.80;;
17079;SDS011;8655;57.106;-2.088;2023-04-24T04:25:04;4.23;;;1.87;;
17079;SDS011;8655;57.106;-2.088;2023-04-24T04:27:31;4.43;;;1.77;;
17079;SDS011;8655;57.106;-2.088;2023-04-24T04:30:03;4.60;;;1.83;;
17079;SDS011;8655;57.106;-2.088;2023-04-24T04:32:32;5.70;;;2.20;;
17079;SDS011;8655;57.106;-2.088;2023-04-24T04:35:01;4.40;;;1.67;;
17079;SDS011;8655;57.106;-2.088;2023-04-24T04:37:29;3.77;;;2.00;;
17079;SDS011;8655;57.106;-2.088;2023-04-24T04:39:56;4.27;;;1.83;;
17079;SDS011;8655;57.106;-2.088;2023-04-24T04:42:25;5.00;;;2.20;;
17079;SDS011;8655;57.106;-2.088;2023-04-24T04:44:52;5.83;;;1.87;;
17079;SDS011;8655;57.106;-2.088;2023-04-24T04:47:18;2.33;;;1.40;;
17079;SDS011;8655;57.106;-2.088;2023-04-24T04:49:47;4.27;;;1.83;;
17079;SDS011;8655;57.106;-2.088;2023-04-24T04:52:13;3.77;;;1.87;;
17079;SDS011;8655;57.106;-2.088;2023-04-24T04:54:38;3.87;;;1.97;;
17079;SDS011;8655;57.106;-2.088;2023-04-24T04:57:04;2.67;;;1.70;;
17079;SDS011;8655;57.106;-2.088;2023-04-24T04:59:30;4.87;;;1.90;;
17079;SDS011;8655;57.106;-2.088;2023-04-24T05:01:56;4.27;;;2.03;;
17079;SDS011;8655;57.106;-2.088;2023-04-24T05:04:22;3.97;;;2.10;;
17079;SDS011;8655;57.106;-2.088;2023-04-24T05:06:47;3.37;;;1.80;;
17079;SDS011;8655;57.106;-2.088;2023-04-24T05:09:13;4.40;;;2.03;;
17079;SDS011;8655;57.106;-2.088;2023-04-24T05:11:39;4.07;;;2.00;;
17079;SDS011;8655;57.106;-2.088;2023-04-24T05:14:05;4.37;;;2.00;;
17079;SDS011;8655;57.106;-2.088;2023-04-24T05:16:30;4.20;;;1.80;;
17079;SDS011;8655;57.106;-2.088;2023-04-24T05:18:56;2.90;;;1.60;;
17079;SDS011;8655;57.106;-2.088;2023-04-24T05:21:22;3.97;;;1.73;;
17079;SDS011;8655;57.106;-2.088;2023-04-24T05:23:48;3.73;;;1.77;;
17079;SDS011;8655;57.106;-2.088;2023-04-24T05:26:13;4.63;;;1.90;;
17079;SDS011;8655;57.106;-2.088;2023-04-24T05:28:40;3.37;;;1.70;;
17079;SDS011;8655;57.106;-2.088;2023-04-24T05:31:06;3.77;;;1.60;;
17079;SDS011;8655;57.106;-2.088;2023-04-24T05:33:31;3.50;;;1.77;;
17079;SDS011;8655;57.106;-2.088;2023-04-24T05:35:57;3.17;;;1.70;;
17079;SDS011;8655;57.106;-2.088;2023-04-24T05:38:23;4.63;;;2.00;;
17079;SDS011;8655;57.106;-2.088;2023-04-24T05:40:48;3.07;;;1.50;;
17079;SDS011;8655;57.106;-2.088;2023-04-24T05:43:14;3.53;;;1.70;;
17079;SDS011;8655;57.106;-2.088;2023-04-24T05:45:40;3.87;;;1.90;;
17079;SDS011;8655;57.106;-2.088;2023-04-24T05:48:05;3.37;;;1.70;;
17079;SDS011;8655;57.106;-2.088;2023-04-24T05:50:31;3.80;;;1.60;;
17079;SDS011;8655;57.106;-2.088;2023-04-24T05:52:57;3.30;;;1.83;;
17079;SDS011;8655;57.106;-2.088;2023-04-24T05:55:27;3.93;;;1.63;;
17079;SDS011;8655;57.106;-2.088;2023-04-24T05:57:53;2.63;;;1.50;;
17079;SDS011;8655;57.106;-2.088;2023-04-24T06:00:19;3.47;;;1.60;;
17079;SDS011;8655;57.106;-2.088;2023-04-24T06:02:45;3.47;;;1.60;;
17079;SDS011;8655;57.106;-2.088;2023-04-24T06:05:12;2.33;;;1.30;;
17079;SDS011;8655;57.106;-2.088;2023-04-24T06:07:37;2.80;;;1.70;;
17079;SDS011;8655;57.106;-2.088;2023-04-24T06:10:03;2.90;;;1.60;;
17079;SDS011;8655;57.106;-2.088;2023-04-24T06:12:29;3.40;;;1.57;;
17079;SDS011;8655;57.106;-2.088;2023-04-24T06:14:55;2.77;;;1.53;;
17079;SDS011;8655;57.106;-2.088;2023-04-24T06:17:21;2.67;;;1.60;;
17079;SDS011;8655;57.106;-2.088;2023-04-24T06:19:46;4.80;;;1.80;;
17079;SDS011;8655;57.106;-2.088;2023-04-24T06:22:12;4.10;;;1.70;;
17079;SDS011;8655;57.106;-2.088;2023-04-24T06:24:39;3.67;;;1.63;;
17079;SDS011;8655;57.106;-2.088;2023-04-24T06:27:05;3.50;;;1.70;;
17079;SDS011;8655;57.106;-2.088;2023-04-24T06:29:31;3.30;;;1.67;;
17079;SDS011;8655;57.106;-2.088;2023-04-24T06:31:58;4.93;;;1.67;;
17079;SDS011;8655;57.106;-2.088;2023-04-24T06:34:24;4.53;;;1.67;;
17079;SDS011;8655;57.106;-2.088;2023-04-24T06:36:50;5.63;;;1.87;;
17079;SDS011;8655;57.106;-2.088;2023-04-24T06:39:16;3.57;;;1.73;;
17079;SDS011;8655;57.106;-2.088;2023-04-24T06:41:42;5.07;;;1.93;;
17079;SDS011;8655;57.106;-2.088;2023-04-24T06:44:07;2.73;;;1.60;;
17079;SDS011;8655;57.106;-2.088;2023-04-24T06:46:33;5.87;;;2.03;;
17079;SDS011;8655;57.106;-2.088;2023-04-24T06:48:59;3.60;;;1.80;;
17079;SDS011;8655;57.106;-2.088;2023-04-24T06:51:26;4.37;;;1.80;;
17079;SDS011;8655;57.106;-2.088;2023-04-24T06:53:55;3.23;;;1.77;;
17079;SDS011;8655;57.106;-2.088;2023-04-24T06:56:23;3.87;;;1.90;;
17079;SDS011;8655;57.106;-2.088;2023-04-24T06:58:49;4.10;;;1.60;;
17079;SDS011;8655;57.106;-2.088;2023-04-24T07:01:15;3.50;;;1.67;;
17079;SDS011;8655;57.106;-2.088;2023-04-24T07:03:40;3.90;;;1.60;;
17079;SDS011;8655;57.106;-2.088;2023-04-24T07:06:06;3.93;;;1.73;;
17079;SDS011;8655;57.106;-2.088;2023-04-24T07:08:32;4.17;;;1.83;;
17079;SDS011;8655;57.106;-2.088;2023-04-24T07:10:58;3.20;;;1.43;;
17079;SDS011;8655;57.106;-2.088;2023-04-24T07:13:24;4.23;;;1.80;;
17079;SDS011;8655;57.106;-2.088;2023-04-24T07:15:51;3.57;;;1.70;;
17079;SDS011;8655;57.106;-2.088;2023-04-24T07:18:18;4.17;;;1.70;;
17079;SDS011;8655;57.106;-2.088;2023-04-24T07:20:45;3.30;;;1.47;;
17079;SDS011;8655;57.106;-2.088;2023-04-24T07:23:11;6.00;;;1.77;;
17079;SDS011;8655;57.106;-2.088;2023-04-24T07:25:37;3.83;;;1.60;;
17079;SDS011;8655;57.106;-2.088;2023-04-24T07:28:03;4.10;;;1.60;;
17079;SDS011;8655;57.106;-2.088;2023-04-24T07:30:29;3.40;;;1.60;;
17079;SDS011;8655;57.106;-2.088;2023-04-24T07:32:57;2.60;;;1.40;;
17079;SDS011;8655;57.106;-2.088;2023-04-24T07:35:23;3.90;;;1.77;;
17079;SDS011;8655;57.106;-2.088;2023-04-24T07:37:50;2.47;;;1.53;;
17079;SDS011;8655;57.106;-2.088;2023-04-24T07:40:17;3.73;;;1.70;;
17079;SDS011;8655;57.106;-2.088;2023-04-24T07:42:43;2.80;;;1.50;;
17079;SDS011;8655;57.106;-2.088;2023-04-24T07:45:09;3.53;;;1.77;;
17079;SDS011;8655;57.106;-2.088;2023-04-24T07:47:35;4.33;;;1.83;;
17079;SDS011;8655;57.106;-2.088;2023-04-24T07:50:03;4.03;;;1.67;;
17079;SDS011;8655;57.106;-2.088;2023-04-24T07:52:29;5.30;;;1.70;;
17079;SDS011;8655;57.106;-2.088;2023-04-24T07:54:55;4.90;;;1.83;;
17079;SDS011;8655;57.106;-2.088;2023-04-24T07:57:25;3.43;;;1.73;;
17079;SDS011;8655;57.106;-2.088;2023-04-24T07:59:51;3.63;;;1.70;;
17079;SDS011;8655;57.106;-2.088;2023-04-24T08:02:16;3.80;;;1.90;;
17079;SDS011;8655;57.106;-2.088;2023-04-24T08:04:42;2.83;;;1.60;;
17079;SDS011;8655;57.106;-2.088;2023-04-24T08:07:08;4.50;;;1.80;;
17079;SDS011;8655;57.106;-2.088;2023-04-24T08:09:34;4.47;;;1.67;;
17079;SDS011;8655;57.106;-2.088;2023-04-24T08:11:59;5.20;;;1.93;;
17079;SDS011;8655;57.106;-2.088;2023-04-24T08:14:26;3.23;;;1.70;;
17079;SDS011;8655;57.106;-2.088;2023-04-24T08:16:53;3.43;;;1.70;;
17079;SDS011;8655;57.106;-2.088;2023-04-24T08:19:20;4.47;;;1.80;;
17079;SDS011;8655;57.106;-2.088;2023-04-24T08:21:46;4.83;;;1.80;;
17079;SDS011;8655;57.106;-2.088;2023-04-24T08:24:12;4.37;;;1.63;;
17079;SDS011;8655;57.106;-2.088;2023-04-24T08:26:38;3.67;;;1.70;;
17079;SDS011;8655;57.106;-2.088;2023-04-24T08:29:04;3.83;;;1.63;;
17079;SDS011;8655;57.106;-2.088;2023-04-24T08:31:31;4.73;;;2.10;;
17079;SDS011;8655;57.106;-2.088;2023-04-24T08:33:57;4.87;;;2.00;;
17079;SDS011;8655;57.106;-2.088;2023-04-24T08:36:23;4.43;;;1.80;;
17079;SDS011;8655;57.106;-2.088;2023-04-24T08:38:49;4.23;;;1.83;;
17079;SDS011;8655;57.106;-2.088;2023-04-24T08:41:15;4.60;;;1.77;;
17079;SDS011;8655;57.106;-2.088;2023-04-24T08:43:42;6.50;;;2.00;;
17079;SDS011;8655;57.106;-2.088;2023-04-24T08:46:11;4.80;;;2.00;;
17079;SDS011;8655;57.106;-2.088;2023-04-24T08:48:38;5.10;;;1.97;;
17079;SDS011;8655;57.106;-2.088;2023-04-24T08:51:06;5.47;;;2.20;;
17079;SDS011;8655;57.106;-2.088;2023-04-24T08:53:32;4.47;;;1.97;;
17079;SDS011;8655;57.106;-2.088;2023-04-24T08:55:59;4.47;;;1.90;;
17079;SDS011;8655;57.106;-2.088;2023-04-24T08:58:27;4.23;;;1.87;;
17079;SDS011;8655;57.106;-2.088;2023-04-24T09:00:56;6.33;;;2.13;;
17079;SDS011;8655;57.106;-2.088;2023-04-24T09:03:23;5.37;;;1.90;;
17079;SDS011;8655;57.106;-2.088;2023-04-24T09:05:49;4.73;;;2.00;;
17079;SDS011;8655;57.106;-2.088;2023-04-24T09:08:18;5.37;;;2.00;;
17079;SDS011;8655;57.106;-2.088;2023-04-24T09:10:44;4.73;;;1.80;;
17079;SDS011;8655;57.106;-2.088;2023-04-24T09:13:10;6.50;;;2.07;;
17079;SDS011;8655;57.106;-2.088;2023-04-24T09:15:40;5.57;;;1.97;;
17079;SDS011;8655;57.106;-2.088;2023-04-24T09:18:06;5.23;;;2.10;;
17079;SDS011;8655;57.106;-2.088;2023-04-24T09:20:32;4.27;;;2.00;;
17079;SDS011;8655;57.106;-2.088;2023-04-24T09:22:58;5.57;;;2.17;;
17079;SDS011;8655;57.106;-2.088;2023-04-24T09:25:42;4.40;;;2.17;;
17079;SDS011;8655;57.106;-2.088;2023-04-24T09:28:07;4.73;;;2.17;;
17079;SDS011;8655;57.106;-2.088;2023-04-24T09:30:33;5.80;;;2.20;;
17079;SDS011;8655;57.106;-2.088;2023-04-24T09:33:12;5.50;;;1.93;;
17079;SDS011;8655;57.106;-2.088;2023-04-24T09:35:50;5.00;;;2.13;;
17079;SDS011;8655;57.106;-2.088;2023-04-24T09:38:17;4.80;;;1.97;;
17079;SDS011;8655;57.106;-2.088;2023-04-24T09:40:42;5.50;;;2.07;;
17079;SDS011;8655;57.106;-2.088;2023-04-24T09:43:11;4.57;;;1.90;;
17079;SDS011;8655;57.106;-2.088;2023-04-24T09:45:37;6.83;;;2.30;;
17079;SDS011;8655;57.106;-2.088;2023-04-24T09:48:04;4.90;;;2.10;;
17079;SDS011;8655;57.106;-2.088;2023-04-24T09:50:34;3.83;;;1.90;;
17079;SDS011;8655;57.106;-2.088;2023-04-24T09:53:04;5.60;;;2.17;;
17079;SDS011;8655;57.106;-2.088;2023-04-24T09:55:32;5.33;;;2.10;;
17079;SDS011;8655;57.106;-2.088;2023-04-24T09:57:58;5.80;;;2.10;;
17079;SDS011;8655;57.106;-2.088;2023-04-24T10:00:32;5.73;;;2.20;;
17079;SDS011;8655;57.106;-2.088;2023-04-24T10:02:59;4.90;;;2.13;;
17079;SDS011;8655;57.106;-2.088;2023-04-24T10:05:26;5.33;;;2.30;;
17079;SDS011;8655;57.106;-2.088;2023-04-24T10:08:00;4.20;;;1.80;;
17079;SDS011;8655;57.106;-2.088;2023-04-24T10:10:31;4.57;;;2.00;;
17079;SDS011;8655;57.106;-2.088;2023-04-24T10:12:59;3.57;;;1.90;;
17079;SDS011;8655;57.106;-2.088;2023-04-24T10:15:26;6.13;;;2.37;;
17079;SDS011;8655;57.106;-2.088;2023-04-24T10:17:52;3.50;;;1.90;;
17079;SDS011;8655;57.106;-2.088;2023-04-24T10:20:19;4.97;;;2.30;;
17079;SDS011;8655;57.106;-2.088;2023-04-24T10:22:50;4.30;;;1.87;;
17079;SDS011;8655;57.106;-2.088;2023-04-24T10:25:20;3.40;;;1.83;;
17079;SDS011;8655;57.106;-2.088;2023-04-24T10:27:48;5.70;;;2.20;;
17079;SDS011;8655;57.106;-2.088;2023-04-24T10:30:15;5.07;;;2.20;;
17079;SDS011;8655;57.106;-2.088;2023-04-24T10:32:42;5.67;;;2.23;;
17079;SDS011;8655;57.106;-2.088;2023-04-24T10:35:08;6.60;;;2.30;;
17079;SDS011;8655;57.106;-2.088;2023-04-24T10:37:38;4.90;;;1.93;;
17079;SDS011;8655;57.106;-2.088;2023-04-24T10:40:07;5.13;;;2.27;;
17079;SDS011;8655;57.106;-2.088;2023-04-24T10:42:35;4.60;;;2.10;;
17079;SDS011;8655;57.106;-2.088;2023-04-24T10:45:06;4.67;;;2.10;;
17079;SDS011;8655;57.106;-2.088;2023-04-24T10:47:40;4.17;;;1.90;;
17079;SDS011;8655;57.106;-2.088;2023-04-24T10:50:10;5.50;;;2.13;;
17079;SDS011;8655;57.106;-2.088;2023-04-24T10:52:48;4.07;;;2.20;;
17079;SDS011;8655;57.106;-2.088;2023-04-24T10:58:08;3.73;;;1.70;;
17079;SDS011;8655;57.106;-2.088;2023-04-24T11:00:38;4.10;;;1.90;;
17079;SDS011;8655;57.106;-2.088;2023-04-24T11:03:05;4.60;;;2.00;;
17079;SDS011;8655;57.106;-2.088;2023-04-24T11:05:49;5.90;;;2.20;;
17079;SDS011;8655;57.106;-2.088;2023-04-24T11:08:22;4.67;;;1.83;;
17079;SDS011;8655;57.106;-2.088;2023-04-24T11:11:03;3.90;;;2.07;;
17079;SDS011;8655;57.106;-2.088;2023-04-24T11:16:35;5.10;;;2.00;;
17079;SDS011;8655;57.106;-2.088;2023-04-24T11:24:24;4.00;;;1.63;;
17079;SDS011;8655;57.106;-2.088;2023-04-24T11:26:51;5.07;;;1.80;;
17079;SDS011;8655;57.106;-2.088;2023-04-24T11:29:21;5.10;;;1.90;;
17079;SDS011;8655;57.106;-2.088;2023-04-24T11:31:48;4.83;;;1.87;;
17079;SDS011;8655;57.106;-2.088;2023-04-24T11:34:16;5.10;;;1.83;;
17079;SDS011;8655;57.106;-2.088;2023-04-24T11:36:43;3.70;;;1.70;;
17079;SDS011;8655;57.106;-2.088;2023-04-24T11:39:10;3.40;;;1.57;;
17079;SDS011;8655;57.106;-2.088;2023-04-24T11:41:37;3.17;;;1.77;;
17079;SDS011;8655;57.106;-2.088;2023-04-24T11:44:03;4.50;;;1.80;;
17079;SDS011;8655;57.106;-2.088;2023-04-24T11:46:33;3.57;;;1.53;;
17079;SDS011;8655;57.106;-2.088;2023-04-24T11:48:58;2.97;;;1.50;;
17079;SDS011;8655;57.106;-2.088;2023-04-24T11:51:25;3.23;;;1.73;;
17079;SDS011;8655;57.106;-2.088;2023-04-24T11:53:55;2.97;;;1.50;;
17079;SDS011;8655;57.106;-2.088;2023-04-24T11:56:24;3.93;;;1.57;;
17079;SDS011;8655;57.106;-2.088;2023-04-24T11:58:53;4.00;;;1.73;;
17079;SDS011;8655;57.106;-2.088;2023-04-24T12:01:19;2.67;;;1.70;;
17079;SDS011;8655;57.106;-2.088;2023-04-24T12:03:59;4.63;;;1.90;;
17079;SDS011;8655;57.106;-2.088;2023-04-24T12:06:25;2.47;;;1.57;;
17079;SDS011;8655;57.106;-2.088;2023-04-24T12:08:52;2.70;;;1.50;;
17079;SDS011;8655;57.106;-2.088;2023-04-24T12:11:20;2.73;;;1.40;;
17079;SDS011;8655;57.106;-2.088;2023-04-24T12:13:45;3.10;;;1.63;;
17079;SDS011;8655;57.106;-2.088;2023-04-24T12:16:11;3.20;;;1.60;;
17079;SDS011;8655;57.106;-2.088;2023-04-24T12:18:44;3.27;;;1.60;;
17079;SDS011;8655;57.106;-2.088;2023-04-24T12:21:20;2.60;;;1.50;;
17079;SDS011;8655;57.106;-2.088;2023-04-24T12:23:47;5.33;;;1.60;;
17079;SDS011;8655;57.106;-2.088;2023-04-24T12:26:17;3.47;;;1.70;;
17079;SDS011;8655;57.106;-2.088;2023-04-24T12:28:45;2.70;;;1.50;;
17079;SDS011;8655;57.106;-2.088;2023-04-24T12:31:14;3.03;;;1.60;;
17079;SDS011;8655;57.106;-2.088;2023-04-24T12:33:40;3.73;;;1.50;;
17079;SDS011;8655;57.106;-2.088;2023-04-24T12:36:06;2.93;;;1.43;;
17079;SDS011;8655;57.106;-2.088;2023-04-24T12:38:35;4.77;;;1.50;;
17079;SDS011;8655;57.106;-2.088;2023-04-24T12:41:06;2.13;;;1.40;;
17079;SDS011;8655;57.106;-2.088;2023-04-24T12:43:33;3.93;;;1.60;;
17079;SDS011;8655;57.106;-2.088;2023-04-24T12:45:59;2.10;;;1.40;;
17079;SDS011;8655;57.106;-2.088;2023-04-24T12:48:28;3.20;;;1.37;;
17079;SDS011;8655;57.106;-2.088;2023-04-24T12:50:56;2.70;;;1.30;;
17079;SDS011;8655;57.106;-2.088;2023-04-24T12:53:26;2.03;;;1.43;;
17079;SDS011;8655;57.106;-2.088;2023-04-24T12:55:53;3.33;;;1.50;;
17079;SDS011;8655;57.106;-2.088;2023-04-24T12:58:22;3.97;;;1.40;;
17079;SDS011;8655;57.106;-2.088;2023-04-24T13:00:47;3.00;;;1.50;;
17079;SDS011;8655;57.106;-2.088;2023-04-24T13:03:13;3.60;;;1.50;;
17079;SDS011;8655;57.106;-2.088;2023-04-24T13:05:39;2.30;;;1.27;;
17079;SDS011;8655;57.106;-2.088;2023-04-24T13:08:05;2.80;;;1.40;;
17079;SDS011;8655;57.106;-2.088;2023-04-24T13:10:31;2.23;;;1.40;;
17079;SDS011;8655;57.106;-2.088;2023-04-24T13:12:57;2.60;;;1.53;;
17079;SDS011;8655;57.106;-2.088;2023-04-24T13:15:22;2.40;;;1.40;;
17079;SDS011;8655;57.106;-2.088;2023-04-24T13:17:49;2.33;;;0.90;;
17079;SDS011;8655;57.106;-2.088;2023-04-24T13:20:15;2.90;;;1.40;;
17079;SDS011;8655;57.106;-2.088;2023-04-24T13:22:41;2.83;;;1.43;;
17079;SDS011;8655;57.106;-2.088;2023-04-24T13:25:06;2.27;;;1.27;;
17079;SDS011;8655;57.106;-2.088;2023-04-24T13:27:32;2.47;;;1.33;;
17079;SDS011;8655;57.106;-2.088;2023-04-24T13:29:58;3.47;;;1.40;;
17079;SDS011;8655;57.106;-2.088;2023-04-24T13:32:24;2.20;;;1.40;;
17079;SDS011;8655;57.106;-2.088;2023-04-24T13:34:50;2.67;;;1.40;;
17079;SDS011;8655;57.106;-2.088;2023-04-24T13:37:16;3.07;;;1.43;;
17079;SDS011;8655;57.106;-2.088;2023-04-24T13:39:41;4.23;;;1.50;;
17079;SDS011;8655;57.106;-2.088;2023-04-24T13:42:07;2.63;;;1.33;;
17079;SDS011;8655;57.106;-2.088;2023-04-24T13:44:33;2.23;;;1.27;;
17079;SDS011;8655;57.106;-2.088;2023-04-24T13:46:59;2.33;;;1.30;;
17079;SDS011;8655;57.106;-2.088;2023-04-24T13:49:25;3.37;;;1.23;;
17079;SDS011;8655;57.106;-2.088;2023-04-24T13:51:52;3.27;;;1.50;;
17079;SDS011;8655;57.106;-2.088;2023-04-24T13:54:19;2.17;;;1.27;;
17079;SDS011;8655;57.106;-2.088;2023-04-24T13:56:44;4.07;;;1.30;;
17079;SDS011;8655;57.106;-2.088;2023-04-24T13:59:12;2.37;;;1.20;;
17079;SDS011;8655;57.106;-2.088;2023-04-24T14:01:37;4.37;;;1.70;;
17079;SDS011;8655;57.106;-2.088;2023-04-24T14:04:03;2.37;;;1.30;;
17079;SDS011;8655;57.106;-2.088;2023-04-24T14:06:29;2.27;;;1.20;;
17079;SDS011;8655;57.106;-2.088;2023-04-24T14:08:57;2.37;;;0.97;;
17079;SDS011;8655;57.106;-2.088;2023-04-24T14:11:22;2.20;;;1.00;;
17079;SDS011;8655;57.106;-2.088;2023-04-24T14:13:48;2.47;;;1.23;;
17079;SDS011;8655;57.106;-2.088;2023-04-24T14:16:14;3.23;;;1.30;;
17079;SDS011;8655;57.106;-2.088;2023-04-24T14:18:40;2.73;;;1.33;;
17079;SDS011;8655;57.106;-2.088;2023-04-24T14:21:06;3.37;;;1.20;;
17079;SDS011;8655;57.106;-2.088;2023-04-24T14:23:32;2.00;;;1.30;;
17079;SDS011;8655;57.106;-2.088;2023-04-24T14:25:58;1.90;;;1.30;;
17079;SDS011;8655;57.106;-2.088;2023-04-24T14:28:24;2.17;;;1.13;;
17079;SDS011;8655;57.106;-2.088;2023-04-24T14:30:51;1.80;;;0.97;;
17079;SDS011;8655;57.106;-2.088;2023-04-24T14:33:17;2.77;;;1.47;;
17079;SDS011;8655;57.106;-2.088;2023-04-24T14:35:43;2.67;;;1.33;;
17079;SDS011;8655;57.106;-2.088;2023-04-24T14:38:09;2.57;;;1.30;;
17079;SDS011;8655;57.106;-2.088;2023-04-24T14:40:35;1.30;;;1.00;;
17079;SDS011;8655;57.106;-2.088;2023-04-24T14:43:01;2.23;;;1.20;;
17079;SDS011;8655;57.106;-2.088;2023-04-24T14:45:27;3.47;;;1.50;;
17079;SDS011;8655;57.106;-2.088;2023-04-24T14:47:53;1.70;;;1.10;;
17079;SDS011;8655;57.106;-2.088;2023-04-24T14:50:20;2.13;;;1.10;;
17079;SDS011;8655;57.106;-2.088;2023-04-24T14:52:46;2.40;;;1.20;;
17079;SDS011;8655;57.106;-2.088;2023-04-24T14:55:11;2.87;;;1.17;;
17079;SDS011;8655;57.106;-2.088;2023-04-24T14:57:37;1.80;;;1.07;;